Time;durP1;ratioP1;P1;durP2;ratioP2;P2;SDS_P1;SDS_P2;PMS_P1;PMS_P2;Temp;Humidity;BMP_temperature;BMP_pressure;BME280_temperature;BME280_humidity;BME280_pressure;Samples;Min_cycle;Max_cycle;Signal;HPM_P1;HPM_P2
2022/08/28 02:33:39;;;;;;;3.58;1.17;;;13.40;99.90;;;;;;6101001;23;20349;-82
2022/08/28 02:38:00;;;;;;;5.55;1.20;;;13.50;99.90;;;;;;6009032;23;20395;-83
2022/08/28 02:41:24;;;;;;;5.70;1.73;;;13.40;99.90;;;;;;5996522;24;19992;-86
2022/08/28 02:49:17;;;;;;;5.93;1.08;;;13.30;99.90;;;;;;6014222;23;20024;-83
2022/08/28 02:52:33;;;;;;;3.97;1.10;;;13.30;99.90;;;;;;6003187;23;20011;-85
2022/08/28 02:55:31;;;;;;;4.35;1.20;;;13.30;99.90;;;;;;6022599;23;20019;-82
2022/08/28 02:58:05;;;;;;;6.07;1.52;;;13.30;99.90;;;;;;6000071;23;20015;-85
2022/08/28 03:01:32;;;;;;;4.35;1.45;;;13.30;99.90;;;;;;6102181;23;20010;-84
2022/08/28 03:04:17;;;;;;;5.38;1.38;;;13.30;99.90;;;;;;6087295;23;20012;-83
2022/08/28 03:06:51;;;;;;;6.95;1.25;;;13.30;99.90;;;;;;6132326;23;20006;-82
2022/08/28 03:09:34;;;;;;;4.82;1.17;;;13.30;99.90;;;;;;6079047;23;20014;-83
2022/08/28 03:12:15;;;;;;;4.65;1.00;;;13.20;99.90;;;;;;6103409;23;20010;-80
2022/08/28 03:16:10;;;;;;;4.97;0.80;;;13.30;99.90;;;;;;6104994;23;20428;-81
2022/08/28 03:19:24;;;;;;;5.97;1.25;;;13.20;99.90;;;;;;6038874;23;20022;-79
2022/08/28 03:21:57;;;;;;;4.28;1.13;;;13.20;99.90;;;;;;6104413;23;20009;-83
2022/08/28 03:24:43;;;;;;;4.90;1.10;;;13.20;99.90;;;;;;6102381;23;20032;-83
2022/08/28 03:27:31;;;;;;;4.00;1.40;;;13.20;99.90;;;;;;6113943;23;20013;-81
2022/08/28 03:30:01;;;;;;;5.75;1.60;;;13.20;99.90;;;;;;6099685;23;20006;-80
2022/08/28 03:32:30;;;;;;;4.90;1.23;;;13.20;99.90;;;;;;6074857;23;20009;-81
2022/08/28 03:34:57;;;;;;;2.63;1.13;;;13.20;99.90;;;;;;6072478;23;20227;-80
2022/08/28 03:37:23;;;;;;;6.28;1.30;;;13.20;99.90;;;;;;6099807;23;20002;-79
2022/08/28 03:39:49;;;;;;;3.92;1.08;;;13.20;99.90;;;;;;6098284;23;20325;-79
2022/08/28 03:42:16;;;;;;;4.30;1.08;;;13.20;99.90;;;;;;6074447;23;20434;-83
2022/08/28 03:44:43;;;;;;;7.05;1.15;;;13.20;99.90;;;;;;6122382;23;19998;-80
2022/08/28 03:47:12;;;;;;;4.40;1.00;;;13.20;99.90;;;;;;6098681;23;20014;-81
2022/08/28 03:49:41;;;;;;;4.30;0.98;;;13.10;99.90;;;;;;6074451;23;20006;-80
2022/08/28 03:52:13;;;;;;;7.03;1.35;;;13.10;99.90;;;;;;6098021;23;20018;-82
2022/08/28 03:54:39;;;;;;;4.43;1.25;;;13.10;99.90;;;;;;6122008;23;20006;-81
2022/08/28 03:57:06;;;;;;;4.30;0.88;;;13.10;99.90;;;;;;6074810;23;20021;-81
2022/08/28 03:59:35;;;;;;;5.65;1.30;;;13.00;99.90;;;;;;6097364;23;20021;-81
2022/08/28 04:02:01;;;;;;;3.13;0.98;;;13.10;99.90;;;;;;6073517;23;20014;-80
2022/08/28 04:04:28;;;;;;;4.28;1.10;;;13.10;99.90;;;;;;6098337;23;20010;-80
2022/08/28 04:06:54;;;;;;;7.10;1.17;;;13.00;99.90;;;;;;6097696;23;20010;-80
2022/08/28 04:09:21;;;;;;;4.75;1.33;;;13.00;99.90;;;;;;6097392;23;20010;-80
2022/08/28 04:11:47;;;;;;;4.35;1.38;;;13.00;99.90;;;;;;6097987;23;20017;-80
2022/08/28 04:14:16;;;;;;;3.50;0.98;;;13.00;99.90;;;;;;6097888;23;20296;-80
2022/08/28 04:16:42;;;;;;;5.28;1.17;;;13.00;99.90;;;;;;6122034;23;20021;-82
2022/08/28 04:19:09;;;;;;;4.32;0.90;;;13.00;99.90;;;;;;6072435;23;20006;-80
2022/08/28 04:21:35;;;;;;;2.33;1.10;;;12.90;99.90;;;;;;6096854;23;19998;-80
2022/08/28 04:24:07;;;;;;;3.95;1.15;;;12.90;99.90;;;;;;6096428;23;20021;-80
2022/08/28 04:26:35;;;;;;;5.60;1.10;;;12.90;99.90;;;;;;6096349;23;20014;-80
2022/08/28 04:29:03;;;;;;;5.95;1.50;;;12.90;99.90;;;;;;6096608;23;20014;-79
2022/08/28 04:31:29;;;;;;;5.28;0.93;;;12.90;99.90;;;;;;6072894;23;20006;-81
2022/08/28 04:33:57;;;;;;;2.88;0.90;;;12.90;99.90;;;;;;6096094;23;20034;-80
2022/08/28 04:36:24;;;;;;;5.45;1.13;;;12.90;99.90;;;;;;6121227;23;19998;-82
2022/08/28 04:38:50;;;;;;;3.40;1.00;;;12.90;99.90;;;;;;6072629;23;20010;-80
2022/08/28 04:41:23;;;;;;;3.08;1.05;;;12.80;99.90;;;;;;6073808;23;20010;-80
2022/08/28 04:43:51;;;;;;;5.68;1.25;;;12.80;99.90;;;;;;6099807;23;20014;-82
2022/08/28 04:46:21;;;;;;;4.10;1.10;;;12.80;99.90;;;;;;6076610;23;20010;-81
2022/08/28 04:48:50;;;;;;;4.18;1.30;;;12.80;99.90;;;;;;6098348;23;20010;-82
2022/08/28 04:51:17;;;;;;;4.32;0.90;;;12.80;99.90;;;;;;6122893;23;20217;-80
2022/08/28 04:53:43;;;;;;;4.32;1.17;;;12.80;99.90;;;;;;6097881;23;20010;-80
2022/08/28 04:56:12;;;;;;;5.75;1.92;;;12.80;99.90;;;;;;6074778;23;20010;-80
2022/08/28 04:58:39;;;;;;;5.90;1.52;;;12.80;99.90;;;;;;6099262;23;20446;-79
2022/08/28 05:01:12;;;;;;;3.35;1.15;;;12.80;99.90;;;;;;6099349;23;20006;-80
2022/08/28 05:03:39;;;;;;;4.63;1.10;;;12.80;99.90;;;;;;6098932;23;20012;-80
2022/08/28 05:06:06;;;;;;;6.50;1.10;;;12.80;99.90;;;;;;6074840;23;20021;-80
2022/08/28 05:08:33;;;;;;;5.90;1.25;;;12.80;99.90;;;;;;6123505;23;20006;-80
2022/08/28 05:11:15;;;;;;;5.68;1.20;;;12.80;99.90;;;;;;6125985;23;20416;-80
2022/08/28 05:13:42;;;;;;;6.18;1.10;;;12.80;99.90;;;;;;6125201;23;20006;-80
2022/08/28 05:16:08;;;;;;;6.22;1.88;;;12.80;99.90;;;;;;6099472;23;20005;-81
2022/08/28 05:18:35;;;;;;;3.35;1.00;;;12.80;99.90;;;;;;6098844;23;20025;-80
2022/08/28 05:21:01;;;;;;;5.15;1.30;;;12.80;99.90;;;;;;6098784;23;20006;-80
2022/08/28 05:23:28;;;;;;;4.10;1.15;;;12.90;99.90;;;;;;6099146;23;20018;-80
2022/08/28 05:25:55;;;;;;;5.38;1.55;;;12.90;99.90;;;;;;6123164;23;20036;-79
2022/08/28 05:28:24;;;;;;;4.45;1.30;;;13.00;99.90;;;;;;6126375;23;20010;-81
2022/08/28 05:30:51;;;;;;;6.18;1.00;;;13.00;99.90;;;;;;6078249;23;20018;-81
2022/08/28 05:33:18;;;;;;;4.95;1.10;;;13.00;99.90;;;;;;6100967;23;20032;-80
2022/08/28 05:35:46;;;;;;;4.13;1.38;;;13.10;99.90;;;;;;6126428;23;20006;-81
2022/08/28 05:38:15;;;;;;;6.05;1.42;;;13.10;99.90;;;;;;6127036;23;20009;-82
2022/08/28 05:40:48;;;;;;;5.85;1.30;;;13.20;99.90;;;;;;6078372;23;19998;-81
2022/08/28 05:43:16;;;;;;;4.78;1.15;;;13.20;99.90;;;;;;6102089;23;20461;-79
2022/08/28 05:45:57;;;;;;;4.50;0.95;;;13.30;99.90;;;;;;6126576;23;20002;-81
2022/08/28 05:48:23;;;;;;;6.13;1.35;;;13.30;99.90;;;;;;6135955;23;20337;-81
2022/08/28 05:50:52;;;;;;;4.55;1.33;;;13.40;99.90;;;;;;6078411;23;20034;-80
2022/08/28 05:53:22;;;;;;;6.97;0.88;;;13.40;99.90;;;;;;6126297;23;20069;-81
2022/08/28 05:55:48;;;;;;;4.13;1.02;;;13.50;99.90;;;;;;6101630;23;20018;-80
2022/08/28 05:58:30;;;;;;;5.78;1.35;;;13.60;99.90;;;;;;6124638;23;20010;-80
2022/08/28 06:01:05;;;;;;;8.00;1.85;;;13.70;99.90;;;;;;6110623;23;20002;-80
2022/08/28 06:03:39;;;;;;;5.95;1.25;;;13.90;99.90;;;;;;6124634;23;20102;-79
2022/08/28 06:06:07;;;;;;;5.50;1.48;;;14.00;99.90;;;;;;6126155;23;20017;-78
2022/08/28 06:08:37;;;;;;;6.10;1.10;;;14.20;99.90;;;;;;6076600;23;20020;-80
2022/08/28 06:11:04;;;;;;;4.20;1.00;;;14.40;99.90;;;;;;6078621;23;20457;-82
2022/08/28 06:13:31;;;;;;;5.53;1.40;;;14.60;99.90;;;;;;6076674;23;20010;-83
2022/08/28 06:15:57;;;;;;;5.63;1.40;;;14.80;99.90;;;;;;6077670;23;20207;-81
2022/08/28 06:18:25;;;;;;;5.82;1.20;;;15.00;99.90;;;;;;6102555;23;20017;-82
2022/08/28 06:20:52;;;;;;;4.22;1.05;;;15.20;99.90;;;;;;6102873;23;20457;-80
2022/08/28 06:23:20;;;;;;;4.35;1.10;;;15.40;99.90;;;;;;6077668;23;20014;-83
2022/08/28 06:25:49;;;;;;;2.53;0.80;;;15.60;99.90;;;;;;6079081;23;20084;-82
2022/08/28 06:28:21;;;;;;;6.88;0.98;;;15.70;99.90;;;;;;6129067;23;20028;-81
2022/08/28 06:30:49;;;;;;;4.13;1.30;;;15.90;99.90;;;;;;6129519;23;20465;-80
2022/08/28 06:33:16;;;;;;;4.30;1.10;;;16.10;99.90;;;;;;6129173;23;20014;-82
2022/08/28 06:35:54;;;;;;;3.63;0.90;;;16.20;99.90;;;;;;6082064;23;20013;-80
2022/08/28 06:38:26;;;;;;;5.07;1.25;;;16.40;99.90;;;;;;6099562;23;20330;-80
2022/08/28 06:40:53;;;;;;;;;;;16.60;99.90;;;;;;6123333;23;20010;-80
2022/08/28 06:43:27;;;;;;;2.72;0.70;;;16.70;99.90;;;;;;6124688;23;19904;-80
2022/08/28 06:45:56;;;;;;;3.67;1.23;;;16.90;99.90;;;;;;6107957;23;20358;-81
2022/08/28 06:48:30;;;;;;;3.30;0.90;;;17.00;99.90;;;;;;6097286;23;20036;-80
2022/08/28 06:50:57;;;;;;;4.53;0.93;;;17.20;99.90;;;;;;6097508;23;20021;-80
2022/08/28 06:53:27;;;;;;;4.78;0.90;;;17.50;99.90;;;;;;6072448;23;20453;-80
2022/08/28 06:56:01;;;;;;;4.55;0.70;;;17.80;99.90;;;;;;6073453;23;20002;-80
2022/08/28 06:58:28;;;;;;;6.40;1.10;;;18.10;99.90;;;;;;6124881;23;20006;-80
2022/08/28 07:01:10;;;;;;;7.45;1.00;;;18.20;99.90;;;;;;6075760;23;20022;-80
2022/08/28 07:03:39;;;;;;;4.38;0.77;;;18.30;99.90;;;;;;6098859;23;20317;-81
2022/08/28 07:06:11;;;;;;;4.88;1.00;;;18.50;99.90;;;;;;6124014;23;20013;-80
2022/08/28 07:08:38;;;;;;;;;;;18.70;99.90;;;;;;6109696;23;20480;-81
2022/08/28 07:11:27;;;;;;;4.63;0.80;;;18.80;99.80;;;;;;6124109;23;19928;-81
2022/08/28 07:13:55;;;;;;;6.25;1.17;;;18.80;99.50;;;;;;6098022;23;20014;-80
2022/08/28 07:16:43;;;;;;;7.68;1.08;;;18.90;98.90;;;;;;6098907;23;20002;-82
2022/08/28 07:19:11;;;;;;;5.63;0.80;;;18.90;98.50;;;;;;6099042;23;20006;-80
2022/08/28 07:21:41;;;;;;;4.25;1.20;;;18.90;98.60;;;;;;6123845;23;19998;-79
2022/08/28 07:24:19;;;;;;;5.72;0.82;;;19.00;98.50;;;;;;6099264;23;20016;-80
2022/08/28 07:26:47;;;;;;;4.07;0.80;;;19.00;98.00;;;;;;6099831;23;20021;-80
2022/08/28 07:29:18;;;;;;;3.55;0.73;;;19.10;97.80;;;;;;6100521;23;20063;-80
2022/08/28 07:31:49;;;;;;;4.40;0.70;;;19.20;97.40;;;;;;6109497;23;20006;-81
2022/08/28 07:37:15;;;;;;;4.50;0.93;;;19.50;97.30;;;;;;6125339;23;20342;-83
2022/08/28 07:39:42;;;;;;;3.92;0.70;;;19.60;96.60;;;;;;6125287;23;20002;-80
2022/08/28 07:45:03;;;;;;;2.10;0.60;;;19.70;96.00;;;;;;6134031;23;20017;-80
2022/08/28 07:47:40;;;;;;;3.28;0.63;;;19.80;96.00;;;;;;6098883;23;20041;-79
2022/08/28 07:50:09;;;;;;;2.83;0.80;;;20.00;96.00;;;;;;6124460;23;20006;-80
2022/08/28 07:52:36;;;;;;;5.65;1.70;;;20.20;95.70;;;;;;6098679;23;20025;-79
2022/08/28 07:55:05;;;;;;;6.43;1.73;;;20.30;95.20;;;;;;6096756;23;20489;-82
2022/08/28 07:57:32;;;;;;;3.72;0.70;;;20.40;95.00;;;;;;6123367;23;20009;-78
2022/08/28 08:00:01;;;;;;;3.70;0.60;;;20.40;94.60;;;;;;6074054;23;20200;-79
2022/08/28 08:02:37;;;;;;;3.97;0.80;;;20.40;94.10;;;;;;6122079;23;20002;-81
2022/08/28 08:05:30;;;;;;;3.10;0.68;;;20.40;93.80;;;;;;6123105;23;20010;-80
2022/08/28 08:07:59;;;;;;;;;;;20.60;93.50;;;;;;6099021;23;20025;-80
2022/08/28 08:10:28;;;;;;;5.50;0.87;;;20.80;93.30;;;;;;6051104;23;20252;-79
2022/08/28 08:12:57;;;;;;;4.07;1.05;;;20.90;92.60;;;;;;6097271;23;20252;-79
2022/08/28 08:15:24;;;;;;;4.00;0.68;;;20.90;92.20;;;;;;6097035;23;20006;-80
2022/08/28 08:17:50;;;;;;;3.38;0.70;;;21.00;92.00;;;;;;6122157;23;20021;-80
2022/08/28 08:20:24;;;;;;;3.00;0.60;;;21.00;91.60;;;;;;6074945;23;20016;-80
2022/08/28 08:22:54;;;;;;;4.65;1.08;;;21.10;91.50;;;;;;6100820;23;20345;-82
2022/08/28 08:25:30;;;;;;;3.55;0.88;;;21.20;91.00;;;;;;6101631;23;20010;-81
2022/08/28 08:27:59;;;;;;;3.65;0.55;;;21.30;90.90;;;;;;6109177;23;20010;-81
2022/08/28 08:30:31;;;;;;;3.40;0.70;;;21.30;90.90;;;;;;6100935;23;20576;-80
2022/08/28 10:54:25;;;;;;;4.75;2.25;;;25.60;71.90;;;;;;6016356;23;20360;-85
2022/08/28 14:33:46;;;;;;;1.67;0.50;;;30.30;46.50;;;;;;6056448;23;20043;-79
2022/08/28 14:36:19;;;;;;;2.30;0.50;;;29.20;48.40;;;;;;6092928;23;20030;-81
2022/08/28 14:38:47;;;;;;;2.00;0.50;;;29.40;48.10;;;;;;6071019;23;20003;-80
2022/08/28 14:41:14;;;;;;;3.17;0.70;;;29.30;48.30;;;;;;6096653;23;19998;-80
2022/08/28 14:43:41;;;;;;;1.60;0.40;;;28.60;48.00;;;;;;6095123;23;20006;-79
2022/08/28 14:46:16;;;;;;;1.25;0.50;;;27.70;49.50;;;;;;6098055;23;20017;-79
2022/08/28 14:48:51;;;;;;;1.20;0.50;;;27.00;51.00;;;;;;6120935;23;20537;-79
2022/08/28 14:51:27;;;;;;;2.00;0.60;;;26.50;51.90;;;;;;6082934;23;20007;-80
2022/08/28 14:53:57;;;;;;;2.50;0.60;;;26.10;52.40;;;;;;6126885;23;20007;-79
2022/08/28 14:56:27;;;;;;;2.28;0.57;;;25.60;52.60;;;;;;6050702;23;20105;-80
2022/08/28 14:59:06;;;;;;;2.92;0.63;;;25.30;53.00;;;;;;6074416;23;20002;-79
2022/08/28 15:01:39;;;;;;;4.00;2.10;;;25.10;53.60;;;;;;6071135;23;20010;-80
2022/08/28 15:04:11;;;;;;;4.72;1.77;;;24.80;54.00;;;;;;6095604;23;20003;-80
2022/08/28 15:06:41;;;;;;;4.05;1.13;;;24.70;55.30;;;;;;6071283;23;20470;-79
2022/08/28 15:09:08;;;;;;;4.28;1.08;;;24.60;56.20;;;;;;6069924;23;20002;-80
2022/08/28 15:11:35;;;;;;;3.08;1.02;;;24.50;56.30;;;;;;6093485;23;20010;-79
2022/08/28 15:14:01;;;;;;;2.47;1.05;;;24.60;56.40;;;;;;6092991;23;20010;-80
2022/08/28 15:16:37;;;;;;;2.40;0.70;;;24.60;56.40;;;;;;6070766;23;20012;-80
2022/08/28 15:19:14;;;;;;;2.25;0.90;;;24.50;56.30;;;;;;6070071;23;20018;-79
2022/08/28 15:21:54;;;;;;;2.08;0.60;;;24.40;55.90;;;;;;6070667;23;20434;-79
2022/08/28 15:25:04;;;;;;;3.22;0.93;;;24.30;56.00;;;;;;6088184;23;20014;-79
2022/08/28 15:27:57;;;;;;;1.88;0.80;;;24.20;56.20;;;;;;6127499;23;20014;-80
2022/08/28 15:30:26;;;;;;;2.40;0.70;;;24.20;56.20;;;;;;6046747;23;20029;-82
2022/08/28 15:33:16;;;;;;;1.90;0.60;;;24.20;56.50;;;;;;6091537;23;20014;-80
2022/08/28 15:35:55;;;;;;;3.88;0.60;;;24.20;56.50;;;;;;6046036;23;20006;-80
2022/08/28 15:41:22;;;;;;;2.50;0.70;;;24.10;57.00;;;;;;6093256;23;20021;-80
2022/08/28 15:41:25;;;;;;;1.55;0.68;;;24.00;57.50;;;;;;6093658;23;20314;-80
2022/08/28 15:44:04;;;;;;;1.15;0.60;;;23.70;57.80;;;;;;6070543;23;20633;-78
2022/08/28 15:46:47;;;;;;;2.78;0.80;;;23.60;58.10;;;;;;6078297;23;20021;-82
2022/08/28 15:49:20;;;;;;;2.78;0.60;;;23.40;58.20;;;;;;6045337;23;20449;-80
2022/08/28 15:51:48;;;;;;;1.67;0.80;;;23.30;58.30;;;;;;6104608;23;20002;-80
2022/08/28 15:54:17;;;;;;;2.95;0.80;;;23.20;58.20;;;;;;6092677;23;20006;-80
2022/08/28 15:56:47;;;;;;;1.92;0.70;;;23.10;58.40;;;;;;6093024;23;20014;-80
2022/08/28 15:59:17;;;;;;;2.72;0.60;;;23.00;58.50;;;;;;6117016;23;20018;-79
2022/08/28 16:01:44;;;;;;;1.48;0.80;;;22.80;58.70;;;;;;6092449;23;20037;-82
2022/08/28 16:04:12;;;;;;;2.08;0.50;;;22.60;59.20;;;;;;6093488;23;20007;-81
2022/08/28 16:06:48;;;;;;;3.25;1.40;;;22.50;59.50;;;;;;6080400;23;20017;-80
2022/08/28 16:09:22;;;;;;;6.47;4.22;;;22.40;59.60;;;;;;6092796;23;20018;-78
2022/08/28 16:11:54;;;;;;;4.75;2.70;;;22.40;60.10;;;;;;6117080;23;20006;-79
2022/08/28 16:14:26;;;;;;;4.22;2.80;;;22.30;60.90;;;;;;6069157;23;20010;-80
2022/08/28 16:17:00;;;;;;;6.97;3.28;;;22.30;60.30;;;;;;6092250;23;20018;-79
2022/08/28 16:19:30;;;;;;;3.15;1.85;;;22.20;60.50;;;;;;6117472;23;20003;-78
2022/08/28 16:22:02;;;;;;;2.97;1.83;;;22.20;60.80;;;;;;6079117;23;20014;-81
2022/08/28 16:24:36;;;;;;;4.47;1.67;;;22.10;61.00;;;;;;6094931;23;20010;-79
2022/08/28 16:27:06;;;;;;;4.30;1.80;;;22.10;61.20;;;;;;6068913;23;20014;-80
2022/08/28 16:29:36;;;;;;;4.18;2.90;;;22.10;61.50;;;;;;6092744;23;20339;-80
2022/08/28 16:32:08;;;;;;;3.20;1.48;;;22.10;61.30;;;;;;6069216;23;20238;-79
2022/08/28 16:34:34;;;;;;;4.88;2.38;;;22.00;61.80;;;;;;6067609;23;20017;-80
2022/08/28 16:37:04;;;;;;;5.00;3.22;;;21.90;62.00;;;;;;6044778;23;20010;-79
2022/08/28 16:39:54;;;;;;;5.97;2.85;;;21.80;62.40;;;;;;6101819;23;20342;-79
2022/08/28 16:42:23;;;;;;;6.22;2.70;;;21.70;62.80;;;;;;6046646;23;20338;-79
2022/08/28 16:45:02;;;;;;;7.07;3.63;;;21.60;63.10;;;;;;6042934;23;20007;-79
2022/08/28 16:47:36;;;;;;;3.75;2.03;;;21.50;63.50;;;;;;6067544;23;20003;-79
2022/08/28 16:53:37;;;;;;;4.20;0.97;;;21.30;64.10;;;;;;6078117;23;20014;-80
2022/08/28 16:56:04;;;;;;;3.20;1.10;;;21.30;64.30;;;;;;6043692;23;20255;-80
2022/08/28 16:58:39;;;;;;;2.47;0.85;;;21.20;64.50;;;;;;6043513;23;20006;-80
2022/08/28 17:01:10;;;;;;;2.45;0.90;;;21.20;64.10;;;;;;6069000;23;20007;-80
2022/08/28 17:03:38;;;;;;;1.58;0.68;;;21.20;63.70;;;;;;6067617;23;20439;-78
2022/08/28 17:06:19;;;;;;;1.85;0.60;;;21.10;63.30;;;;;;6091498;23;20006;-79
2022/08/28 17:08:54;;;;;;;2.00;0.55;;;21.10;63.40;;;;;;6092766;23;20034;-79
2022/08/28 17:11:25;;;;;;;1.60;0.47;;;21.10;63.50;;;;;;6092882;23;20395;-81
2022/08/28 17:14:06;;;;;;;2.03;0.70;;;21.00;63.60;;;;;;6092198;23;20146;-78
2022/08/28 17:16:50;;;;;;;2.80;0.60;;;21.00;64.20;;;;;;6095165;23;20010;-78
2022/08/28 17:19:22;;;;;;;2.20;0.90;;;20.90;64.30;;;;;;6117289;23;20150;-80
2022/08/28 17:22:45;;;;;;;2.22;1.13;;;20.80;64.60;;;;;;6091571;23;20007;-79
2022/08/28 17:25:16;;;;;;;2.58;1.48;;;20.80;64.90;;;;;;6056529;23;20010;-78
2022/08/28 17:28:45;;;;;;;3.25;0.80;;;20.70;65.20;;;;;;6064531;23;20011;-81
2022/08/28 17:34:12;;;;;;;4.75;1.25;;;20.60;65.90;;;;;;6096441;23;20331;-79
2022/08/28 17:37:00;;;;;;;6.10;4.18;;;20.50;66.30;;;;;;6093163;23;20014;-79
2022/08/28 17:39:39;;;;;;;9.80;5.72;;;20.40;66.50;;;;;;6047774;23;20010;-81
2022/08/28 17:42:15;;;;;;;4.13;2.65;;;20.30;66.70;;;;;;6047715;23;20354;-80
2022/08/28 17:44:47;;;;;;;3.00;1.00;;;20.30;67.10;;;;;;6070212;23;20013;-80
2022/08/28 17:47:40;;;;;;;2.03;0.60;;;20.20;67.60;;;;;;6045820;23;20017;-80
2022/08/28 17:50:12;;;;;;;1.95;0.70;;;20.10;68.50;;;;;;6082506;23;20029;-82
2022/08/28 17:52:41;;;;;;;1.35;0.60;;;20.00;68.20;;;;;;6106389;23;20002;-81
2022/08/28 17:55:26;;;;;;;1.52;0.50;;;19.90;68.60;;;;;;6080608;23;20034;-79
2022/08/28 17:57:56;;;;;;;2.35;0.85;;;19.90;69.00;;;;;;6093371;23;20018;-82
2022/08/28 18:00:28;;;;;;;2.17;0.80;;;19.80;69.20;;;;;;6070711;23;20018;-80
2022/08/28 18:02:55;;;;;;;;;;;19.70;69.60;;;;;;6047568;23;20002;-80
2022/08/28 18:05:21;;;;;;;1.55;0.40;;;19.70;69.80;;;;;;6093760;23;19909;-80
2022/08/28 18:08:10;;;;;;;2.13;0.50;;;19.60;70.40;;;;;;6071711;23;20350;-80
2022/08/28 18:10:40;;;;;;;1.40;0.70;;;19.50;70.70;;;;;;6093918;23;20426;-79
2022/08/28 18:13:13;;;;;;;5.82;0.60;;;19.50;70.90;;;;;;6094349;23;20014;-80
2022/08/28 18:15:41;;;;;;;2.22;0.60;;;19.40;72.20;;;;;;6069346;23;20006;-80
2022/08/28 18:18:23;;;;;;;1.80;0.50;;;19.40;72.00;;;;;;6045399;23;20003;-80
2022/08/28 18:20:58;;;;;;;3.03;0.70;;;19.30;72.40;;;;;;6069998;23;20002;-80
2022/08/28 18:23:35;;;;;;;2.03;0.60;;;19.30;73.00;;;;;;6094325;23;20022;-80
2022/08/28 18:26:01;;;;;;;3.65;0.55;;;19.20;74.00;;;;;;6094121;23;20014;-80
2022/08/28 18:28:32;;;;;;;1.55;0.43;;;19.10;73.60;;;;;;6070549;23;20017;-79
2022/08/28 18:31:10;;;;;;;1.25;0.50;;;19.10;73.70;;;;;;6094361;23;20017;-80
2022/08/28 18:34:03;;;;;;;2.17;0.50;;;19.00;73.90;;;;;;6049976;23;20351;-81
2022/08/28 18:36:40;;;;;;;0.98;0.40;;;18.90;74.40;;;;;;6070169;23;20342;-80
2022/08/28 18:39:30;;;;;;;1.42;0.47;;;18.90;74.60;;;;;;6051570;23;20086;-81
2022/08/28 18:42:15;;;;;;;2.55;0.50;;;18.80;74.80;;;;;;6067665;23;20002;-83
2022/08/28 18:45:10;;;;;;;1.30;0.47;;;18.70;75.10;;;;;;6069151;23;20318;-79
2022/08/28 18:48:08;;;;;;;1.55;0.40;;;18.70;75.50;;;;;;6069859;23;20006;-81
2022/08/28 18:54:00;;;;;;;1.70;0.43;;;18.50;75.90;;;;;;6071977;23;20010;-79
2022/08/28 18:56:38;;;;;;;2.05;0.50;;;18.50;76.50;;;;;;6045741;23;20025;-78
2022/08/28 18:59:31;;;;;;;2.13;0.70;;;18.40;76.70;;;;;;6095355;23;20354;-79
2022/08/28 19:02:14;;;;;;;1.40;0.40;;;18.30;77.00;;;;;;6045795;23;20010;-80
2022/08/28 19:04:56;;;;;;;3.08;0.30;;;18.30;77.40;;;;;;6069798;23;20025;-80
2022/08/28 19:08:27;;;;;;;1.50;0.60;;;18.20;77.70;;;;;;6053235;23;20017;-80
2022/08/28 19:11:06;;;;;;;0.85;0.40;;;18.20;78.10;;;;;;6094835;23;20014;-80
2022/08/28 19:13:42;;;;;;;1.63;0.50;;;18.10;78.50;;;;;;6075456;23;20012;-78
2022/08/28 19:16:23;;;;;;;0.80;0.40;;;18.10;78.70;;;;;;6096081;23;20010;-78
2022/08/28 19:19:03;;;;;;;3.83;0.50;;;18.00;78.90;;;;;;6071130;23;20006;-80
2022/08/28 19:22:08;;;;;;;3.17;0.50;;;18.00;79.30;;;;;;6075347;23;20006;-79
2022/08/28 19:25:10;;;;;;;1.17;0.30;;;17.90;79.70;;;;;;6095306;23;20458;-80
2022/08/28 19:28:09;;;;;;;1.40;0.43;;;17.90;79.80;;;;;;6046741;23;20026;-78
2022/08/28 19:30:38;;;;;;;1.10;0.60;;;17.80;80.10;;;;;;6105251;23;20308;-79
2022/08/28 19:33:16;;;;;;;1.55;0.50;;;17.80;80.50;;;;;;6095710;23;19998;-79
2022/08/28 19:39:34;;;;;;;2.85;0.50;;;17.70;81.30;;;;;;6064290;23;20378;-79
2022/08/28 19:49:37;;;;;;;2.05;0.50;;;17.50;82.80;;;;;;6095089;23;20354;-79
2022/08/28 19:52:34;;;;;;;1.98;0.50;;;17.40;83.30;;;;;;6063951;23;20041;-78
2022/08/28 19:59:06;;;;;;;;;;;;;;;;;;;;;
2022/08/28 20:02:47;;;;;;;2.10;0.50;;;17.30;84.20;;;;;;6125501;23;20021;-79
2022/08/28 20:05:51;;;;;;;1.15;0.40;;;17.20;84.90;;;;;;6077777;23;20015;-79
2022/08/28 20:08:25;;;;;;;2.92;0.50;;;17.20;84.90;;;;;;6073701;23;20006;-79
2022/08/28 20:11:02;;;;;;;1.67;0.40;;;17.10;85.20;;;;;;6071584;23;20342;-78
2022/08/28 20:13:57;;;;;;;0.80;0.40;;;17.10;85.50;;;;;;6071912;23;20013;-76
2022/08/28 20:16:57;;;;;;;1.52;0.52;;;17.00;85.60;;;;;;6073702;23;20014;-79
2022/08/28 20:19:50;;;;;;;1.20;0.50;;;17.00;85.80;;;;;;6120528;23;20014;-78
2022/08/28 20:22:35;;;;;;;2.60;0.40;;;17.00;86.40;;;;;;6084100;23;20017;-80
2022/08/28 20:25:18;;;;;;;1.73;0.40;;;16.90;86.60;;;;;;6071245;23;20003;-78
2022/08/28 20:27:50;;;;;;;1.40;0.45;;;16.90;86.80;;;;;;6046015;23;20011;-77
2022/08/28 20:30:53;;;;;;;1.55;0.40;;;16.80;87.10;;;;;;6118168;23;20110;-78
2022/08/28 20:33:41;;;;;;;1.52;0.52;;;16.80;87.30;;;;;;6050157;23;20014;-79
2022/08/28 20:36:14;;;;;;;3.72;0.70;;;16.70;87.80;;;;;;6120369;23;20021;-79
2022/08/28 20:38:48;;;;;;;1.55;0.63;;;16.70;88.00;;;;;;6048954;23;20002;-79
2022/08/28 20:41:48;;;;;;;2.88;0.60;;;16.70;88.30;;;;;;6065922;23;20033;-87
2022/08/28 21:02:20;;;;;;;;;;;;;;;;;;;;;
2022/08/28 21:14:57;;;;;;;5.40;2.25;;;16.10;91.50;;;;;;6108521;23;20029;-82
2022/08/28 21:31:53;;;;;;;;;;;;;;;;;;;;;
2022/08/28 21:57:31;;;;;;;4.93;1.42;;;15.70;94.10;;;;;;5964284;24;20031;-83
2022/08/28 22:01:11;;;;;;;;;;;;;;;;;;;;;
2022/08/28 23:47:40;;;;;;;;;;;;;;;;;;;;;
